メインページ
METAR-TAF:

METAR-TAF

空港 :

Prince George, ブリティッシュコロンビア州, カナダ

緯度: 53-53N, 経度: 122-41W, 海抜: 691m

現時点の気象観測

当レポートは34分前の20:00(UTC)に作成
東/南東の風 3kt
気温 -2°C
湿度 69%
気圧 1011 hPa
視程: 14.5km
晴天

METAR: CYXS 152000Z AUTO 12003KT 9SM CLR M02/M07 A2985 RMK SLP144

時間: 12:34 (20:34 UTC)

予報

当レポートは1時間56分前の18:38(UTC)に作成
予報は15日の 19時(UTC)から 16日の 07時(UTC)まで有効
変向風 3kt
視程: 10km
高度7000ftの雲はほとんどない
高度22000ftの雲は散在している
15日の 21時(UTC)から 15日の 23時(UTC)まで徐々に
の風 10kt
16日の 0600時(UTC)から
の風 15kt
視程: 10km
高度12000ftの千切れ雲あり

TAF: CYXS 151838Z 1519/1607 VRB03KT P6SM FEW070 SCT220 BECMG 1521/1523 01010KT FM160600 01015KT P6SM BKN120 RMK FCST BASED ON AUTO OBS. NXT FCST BY 160100Z

4,000以上の空港の気象観測と天気予報(METAR報とTAF報)

利用可能な観測所は地図上に黄色い丸と赤い丸で示す。

丸の上にカーソルを重ねると観測所名を参照できる。

次にクリックすると気象観測と天気予報を参照できる。

マップの切り替え:黒色「×」印の緑ボタンをクリックして拡大、「-」印の緑ボタンをクリックして縮小、緑色の三角印をクリックして隣りの地図に切り替え


METAR-TAF: